sensor_id;sensor_type;location;lat;lon;timestamp;temperature;humidity
66190;DHT22;52992;52.084;5.412;2024-02-26T00:02:08;9.70;66.20
66190;DHT22;52992;52.084;5.412;2024-02-26T00:04:34;9.70;66.30
66190;DHT22;52992;52.084;5.412;2024-02-26T00:07:01;9.70;66.20
66190;DHT22;52992;52.084;5.412;2024-02-26T00:09:29;9.70;66.10
66190;DHT22;52992;52.084;5.412;2024-02-26T00:11:56;9.70;66.10
66190;DHT22;52992;52.084;5.412;2024-02-26T00:14:24;9.70;66.10
66190;DHT22;52992;52.084;5.412;2024-02-26T00:16:51;9.80;66.20
66190;DHT22;52992;52.084;5.412;2024-02-26T00:19:18;9.80;66.00
66190;DHT22;52992;52.084;5.412;2024-02-26T00:21:45;9.70;65.70
66190;DHT22;52992;52.084;5.412;2024-02-26T00:24:12;9.70;66.00
66190;DHT22;52992;52.084;5.412;2024-02-26T00:26:39;9.70;66.30
66190;DHT22;52992;52.084;5.412;2024-02-26T00:29:06;9.70;66.20
66190;DHT22;52992;52.084;5.412;2024-02-26T00:31:33;9.60;66.00
66190;DHT22;52992;52.084;5.412;2024-02-26T00:34:00;9.60;66.10
66190;DHT22;52992;52.084;5.412;2024-02-26T00:36:27;9.60;66.30
66190;DHT22;52992;52.084;5.412;2024-02-26T00:38:54;9.60;66.20
66190;DHT22;52992;52.084;5.412;2024-02-26T00:41:21;9.60;66.30
66190;DHT22;52992;52.084;5.412;2024-02-26T00:43:48;9.50;66.30
66190;DHT22;52992;52.084;5.412;2024-02-26T00:46:15;9.50;66.20
66190;DHT22;52992;52.084;5.412;2024-02-26T00:48:42;9.50;65.80
66190;DHT22;52992;52.084;5.412;2024-02-26T00:51:09;9.50;66.20
66190;DHT22;52992;52.084;5.412;2024-02-26T00:53:36;9.50;66.10
66190;DHT22;52992;52.084;5.412;2024-02-26T00:56:03;9.50;65.70
66190;DHT22;52992;52.084;5.412;2024-02-26T00:58:30;9.50;65.90
66190;DHT22;52992;52.084;5.412;2024-02-26T01:00:57;9.50;65.80
66190;DHT22;52992;52.084;5.412;2024-02-26T01:03:24;9.50;65.70
66190;DHT22;52992;52.084;5.412;2024-02-26T01:05:51;9.50;65.50
66190;DHT22;52992;52.084;5.412;2024-02-26T01:08:23;9.50;65.60
66190;DHT22;52992;52.084;5.412;2024-02-26T01:10:50;9.50;65.40
66190;DHT22;52992;52.084;5.412;2024-02-26T01:13:17;9.50;65.20
66190;DHT22;52992;52.084;5.412;2024-02-26T01:15:44;9.50;65.00
66190;DHT22;52992;52.084;5.412;2024-02-26T01:18:12;9.50;65.00
66190;DHT22;52992;52.084;5.412;2024-02-26T01:20:39;9.50;65.20
66190;DHT22;52992;52.084;5.412;2024-02-26T01:23:06;9.50;65.00
66190;DHT22;52992;52.084;5.412;2024-02-26T01:25:33;9.50;65.20
66190;DHT22;52992;52.084;5.412;2024-02-26T01:27:59;9.50;65.00
66190;DHT22;52992;52.084;5.412;2024-02-26T01:30:26;9.50;64.70
66190;DHT22;52992;52.084;5.412;2024-02-26T01:32:53;9.60;64.90
66190;DHT22;52992;52.084;5.412;2024-02-26T01:35:20;9.60;64.40
66190;DHT22;52992;52.084;5.412;2024-02-26T01:37:47;9.60;64.60
66190;DHT22;52992;52.084;5.412;2024-02-26T01:40:14;9.50;64.20
66190;DHT22;52992;52.084;5.412;2024-02-26T01:42:46;9.50;64.40
66190;DHT22;52992;52.084;5.412;2024-02-26T01:45:17;9.60;64.50
66190;DHT22;52992;52.084;5.412;2024-02-26T01:47:52;9.50;64.00
66190;DHT22;52992;52.084;5.412;2024-02-26T01:50:19;9.50;64.40
66190;DHT22;52992;52.084;5.412;2024-02-26T01:52:47;9.50;64.60
66190;DHT22;52992;52.084;5.412;2024-02-26T01:55:17;9.50;64.60
66190;DHT22;52992;52.084;5.412;2024-02-26T01:57:46;9.60;64.00
66190;DHT22;52992;52.084;5.412;2024-02-26T02:00:14;9.50;64.00
66190;DHT22;52992;52.084;5.412;2024-02-26T02:02:43;9.60;64.30
66190;DHT22;52992;52.084;5.412;2024-02-26T02:05:15;9.60;64.10
66190;DHT22;52992;52.084;5.412;2024-02-26T02:07:43;9.60;64.10
66190;DHT22;52992;52.084;5.412;2024-02-26T02:10:10;9.60;63.80
66190;DHT22;52992;52.084;5.412;2024-02-26T02:12:37;9.50;64.00
66190;DHT22;52992;52.084;5.412;2024-02-26T02:15:07;9.50;64.00
66190;DHT22;52992;52.084;5.412;2024-02-26T02:17:34;9.60;64.20
66190;DHT22;52992;52.084;5.412;2024-02-26T02:20:01;9.60;64.20
66190;DHT22;52992;52.084;5.412;2024-02-26T02:22:29;9.60;64.10
66190;DHT22;52992;52.084;5.412;2024-02-26T02:24:55;9.60;63.10
66190;DHT22;52992;52.084;5.412;2024-02-26T02:27:23;9.60;63.50
66190;DHT22;52992;52.084;5.412;2024-02-26T02:29:50;9.60;63.10
66190;DHT22;52992;52.084;5.412;2024-02-26T02:32:17;9.60;63.80
66190;DHT22;52992;52.084;5.412;2024-02-26T02:34:45;9.60;64.40
66190;DHT22;52992;52.084;5.412;2024-02-26T02:37:12;9.60;63.80
66190;DHT22;52992;52.084;5.412;2024-02-26T02:39:39;9.60;63.70
66190;DHT22;52992;52.084;5.412;2024-02-26T02:42:06;9.60;63.80
66190;DHT22;52992;52.084;5.412;2024-02-26T02:44:33;9.60;63.90
66190;DHT22;52992;52.084;5.412;2024-02-26T02:46:59;9.60;63.80
66190;DHT22;52992;52.084;5.412;2024-02-26T02:49:26;9.60;63.90
66190;DHT22;52992;52.084;5.412;2024-02-26T02:51:53;9.60;63.80
66190;DHT22;52992;52.084;5.412;2024-02-26T02:54:21;9.60;63.90
66190;DHT22;52992;52.084;5.412;2024-02-26T02:56:48;9.60;63.60
66190;DHT22;52992;52.084;5.412;2024-02-26T02:59:15;9.50;63.60
66190;DHT22;52992;52.084;5.412;2024-02-26T03:01:42;9.50;63.90
66190;DHT22;52992;52.084;5.412;2024-02-26T03:04:10;9.50;64.20
66190;DHT22;52992;52.084;5.412;2024-02-26T03:06:36;9.50;64.20
66190;DHT22;52992;52.084;5.412;2024-02-26T03:09:04;9.50;64.00
66190;DHT22;52992;52.084;5.412;2024-02-26T03:11:31;9.60;63.80
66190;DHT22;52992;52.084;5.412;2024-02-26T03:13:58;9.50;63.20
66190;DHT22;52992;52.084;5.412;2024-02-26T03:16:24;9.50;63.70
66190;DHT22;52992;52.084;5.412;2024-02-26T03:18:51;9.50;63.60
66190;DHT22;52992;52.084;5.412;2024-02-26T03:21:18;9.60;63.70
66190;DHT22;52992;52.084;5.412;2024-02-26T03:23:45;9.60;63.70
66190;DHT22;52992;52.084;5.412;2024-02-26T03:26:12;9.60;62.80
66190;DHT22;52992;52.084;5.412;2024-02-26T03:28:41;9.50;63.00
66190;DHT22;52992;52.084;5.412;2024-02-26T03:31:08;9.50;63.20
66190;DHT22;52992;52.084;5.412;2024-02-26T03:33:35;9.60;62.90
66190;DHT22;52992;52.084;5.412;2024-02-26T03:36:02;9.50;63.10
66190;DHT22;52992;52.084;5.412;2024-02-26T03:38:30;9.50;63.10
66190;DHT22;52992;52.084;5.412;2024-02-26T03:40:57;9.50;63.20
66190;DHT22;52992;52.084;5.412;2024-02-26T03:43:23;9.50;63.30
66190;DHT22;52992;52.084;5.412;2024-02-26T03:45:50;9.50;63.40
66190;DHT22;52992;52.084;5.412;2024-02-26T03:48:17;9.50;63.50
66190;DHT22;52992;52.084;5.412;2024-02-26T03:50:44;9.60;63.60
66190;DHT22;52992;52.084;5.412;2024-02-26T03:53:11;9.60;63.40
66190;DHT22;52992;52.084;5.412;2024-02-26T03:55:40;9.60;63.50
66190;DHT22;52992;52.084;5.412;2024-02-26T03:58:08;9.60;63.30
66190;DHT22;52992;52.084;5.412;2024-02-26T04:00:36;9.60;63.20
66190;DHT22;52992;52.084;5.412;2024-02-26T04:03:04;9.60;63.60
66190;DHT22;52992;52.084;5.412;2024-02-26T04:05:31;9.60;62.90
66190;DHT22;52992;52.084;5.412;2024-02-26T04:07:58;9.50;63.20
66190;DHT22;52992;52.084;5.412;2024-02-26T04:10:24;9.50;63.20
66190;DHT22;52992;52.084;5.412;2024-02-26T04:12:51;9.60;63.30
66190;DHT22;52992;52.084;5.412;2024-02-26T04:15:18;9.50;63.10
66190;DHT22;52992;52.084;5.412;2024-02-26T04:17:45;9.60;62.80
66190;DHT22;52992;52.084;5.412;2024-02-26T04:20:14;9.50;62.90
66190;DHT22;52992;52.084;5.412;2024-02-26T04:22:42;9.50;63.20
66190;DHT22;52992;52.084;5.412;2024-02-26T04:25:09;9.50;63.20
66190;DHT22;52992;52.084;5.412;2024-02-26T04:27:36;9.50;63.30
66190;DHT22;52992;52.084;5.412;2024-02-26T04:30:04;9.40;62.60
66190;DHT22;52992;52.084;5.412;2024-02-26T04:32:31;9.40;62.60
66190;DHT22;52992;52.084;5.412;2024-02-26T04:34:58;9.30;62.30
66190;DHT22;52992;52.084;5.412;2024-02-26T04:37:25;9.30;62.40
66190;DHT22;52992;52.084;5.412;2024-02-26T04:39:51;9.40;63.00
66190;DHT22;52992;52.084;5.412;2024-02-26T04:42:18;9.40;62.60
66190;DHT22;52992;52.084;5.412;2024-02-26T04:44:45;9.40;62.70
66190;DHT22;52992;52.084;5.412;2024-02-26T04:47:12;9.40;62.20
66190;DHT22;52992;52.084;5.412;2024-02-26T04:49:39;9.40;62.60
66190;DHT22;52992;52.084;5.412;2024-02-26T04:52:06;9.40;62.60
66190;DHT22;52992;52.084;5.412;2024-02-26T04:54:33;9.40;62.30
66190;DHT22;52992;52.084;5.412;2024-02-26T04:57:00;9.30;62.90
66190;DHT22;52992;52.084;5.412;2024-02-26T04:59:27;9.40;62.70
66190;DHT22;52992;52.084;5.412;2024-02-26T05:01:54;9.40;62.90
66190;DHT22;52992;52.084;5.412;2024-02-26T05:04:21;9.40;62.50
66190;DHT22;52992;52.084;5.412;2024-02-26T05:06:48;9.30;62.80
66190;DHT22;52992;52.084;5.412;2024-02-26T05:09:15;9.30;62.90
66190;DHT22;52992;52.084;5.412;2024-02-26T05:11:43;9.30;62.40
66190;DHT22;52992;52.084;5.412;2024-02-26T05:14:10;9.40;62.90
66190;DHT22;52992;52.084;5.412;2024-02-26T05:16:37;9.30;62.60
66190;DHT22;52992;52.084;5.412;2024-02-26T05:19:04;9.30;63.00
66190;DHT22;52992;52.084;5.412;2024-02-26T05:21:32;9.40;62.50
66190;DHT22;52992;52.084;5.412;2024-02-26T05:24:00;9.30;62.90
66190;DHT22;52992;52.084;5.412;2024-02-26T05:26:27;9.30;63.30
66190;DHT22;52992;52.084;5.412;2024-02-26T05:28:54;9.40;63.20
66190;DHT22;52992;52.084;5.412;2024-02-26T05:31:26;9.40;63.10
66190;DHT22;52992;52.084;5.412;2024-02-26T05:33:53;9.40;63.00
66190;DHT22;52992;52.084;5.412;2024-02-26T05:36:21;9.40;62.50
66190;DHT22;52992;52.084;5.412;2024-02-26T05:38:49;9.40;62.00
66190;DHT22;52992;52.084;5.412;2024-02-26T05:41:16;9.40;62.80
66190;DHT22;52992;52.084;5.412;2024-02-26T05:43:47;9.40;63.00
66190;DHT22;52992;52.084;5.412;2024-02-26T05:46:16;9.40;62.70
66190;DHT22;52992;52.084;5.412;2024-02-26T05:48:44;9.40;62.70
66190;DHT22;52992;52.084;5.412;2024-02-26T05:51:11;9.40;62.20
66190;DHT22;52992;52.084;5.412;2024-02-26T05:53:38;9.40;62.30
66190;DHT22;52992;52.084;5.412;2024-02-26T05:56:06;9.40;62.20
66190;DHT22;52992;52.084;5.412;2024-02-26T05:58:33;9.40;62.60
66190;DHT22;52992;52.084;5.412;2024-02-26T06:01:00;9.40;62.80
66190;DHT22;52992;52.084;5.412;2024-02-26T06:03:27;9.40;62.80
66190;DHT22;52992;52.084;5.412;2024-02-26T06:05:55;9.40;62.40
66190;DHT22;52992;52.084;5.412;2024-02-26T06:08:21;9.40;62.10
66190;DHT22;52992;52.084;5.412;2024-02-26T06:10:48;9.40;62.30
66190;DHT22;52992;52.084;5.412;2024-02-26T06:13:15;9.40;62.40
66190;DHT22;52992;52.084;5.412;2024-02-26T06:15:42;9.40;62.30
66190;DHT22;52992;52.084;5.412;2024-02-26T06:18:09;9.40;61.90
66190;DHT22;52992;52.084;5.412;2024-02-26T06:20:36;9.40;62.50
66190;DHT22;52992;52.084;5.412;2024-02-26T06:23:03;9.40;61.20
66190;DHT22;52992;52.084;5.412;2024-02-26T06:25:30;9.40;62.00
66190;DHT22;52992;52.084;5.412;2024-02-26T06:27:57;9.40;62.40
66190;DHT22;52992;52.084;5.412;2024-02-26T06:30:24;9.40;62.30
66190;DHT22;52992;52.084;5.412;2024-02-26T06:32:51;9.30;61.80
66190;DHT22;52992;52.084;5.412;2024-02-26T06:35:18;9.30;61.90
66190;DHT22;52992;52.084;5.412;2024-02-26T06:37:45;9.20;61.80
66190;DHT22;52992;52.084;5.412;2024-02-26T06:40:12;9.20;61.80
66190;DHT22;52992;52.084;5.412;2024-02-26T06:42:39;9.20;61.60
66190;DHT22;52992;52.084;5.412;2024-02-26T06:45:06;9.20;62.00
66190;DHT22;52992;52.084;5.412;2024-02-26T06:47:34;9.20;62.50
66190;DHT22;52992;52.084;5.412;2024-02-26T06:50:01;9.30;62.00
66190;DHT22;52992;52.084;5.412;2024-02-26T06:52:28;9.30;62.10
66190;DHT22;52992;52.084;5.412;2024-02-26T06:54:55;9.40;62.10
66190;DHT22;52992;52.084;5.412;2024-02-26T06:57:22;9.30;61.70
66190;DHT22;52992;52.084;5.412;2024-02-26T06:59:49;9.30;61.70
66190;DHT22;52992;52.084;5.412;2024-02-26T07:02:17;9.30;61.70
66190;DHT22;52992;52.084;5.412;2024-02-26T07:04:44;9.30;62.00
66190;DHT22;52992;52.084;5.412;2024-02-26T07:07:11;9.30;62.00
66190;DHT22;52992;52.084;5.412;2024-02-26T07:09:38;9.30;62.00
66190;DHT22;52992;52.084;5.412;2024-02-26T07:12:05;9.30;62.10
66190;DHT22;52992;52.084;5.412;2024-02-26T07:14:32;9.40;62.10
66190;DHT22;52992;52.084;5.412;2024-02-26T07:16:59;9.40;61.90
66190;DHT22;52992;52.084;5.412;2024-02-26T07:19:26;9.40;61.20
66190;DHT22;52992;52.084;5.412;2024-02-26T07:21:53;9.40;60.90
66190;DHT22;52992;52.084;5.412;2024-02-26T07:24:20;9.40;61.30
66190;DHT22;52992;52.084;5.412;2024-02-26T07:26:47;9.40;61.60
66190;DHT22;52992;52.084;5.412;2024-02-26T07:29:14;9.40;61.70
66190;DHT22;52992;52.084;5.412;2024-02-26T07:31:41;9.50;61.50
66190;DHT22;52992;52.084;5.412;2024-02-26T07:34:08;9.50;61.80
66190;DHT22;52992;52.084;5.412;2024-02-26T07:36:35;9.50;61.60
66190;DHT22;52992;52.084;5.412;2024-02-26T07:39:02;9.50;61.50
66190;DHT22;52992;52.084;5.412;2024-02-26T07:41:29;9.50;61.80
66190;DHT22;52992;52.084;5.412;2024-02-26T07:43:56;9.50;61.70
66190;DHT22;52992;52.084;5.412;2024-02-26T07:46:23;9.60;61.60
66190;DHT22;52992;52.084;5.412;2024-02-26T07:48:50;9.60;61.90
66190;DHT22;52992;52.084;5.412;2024-02-26T07:51:17;9.60;61.40
66190;DHT22;52992;52.084;5.412;2024-02-26T07:53:44;9.60;61.30
66190;DHT22;52992;52.084;5.412;2024-02-26T07:56:11;9.60;61.50
66190;DHT22;52992;52.084;5.412;2024-02-26T07:58:38;9.60;62.00
66190;DHT22;52992;52.084;5.412;2024-02-26T08:01:05;9.60;62.00
66190;DHT22;52992;52.084;5.412;2024-02-26T08:03:32;9.60;61.90
66190;DHT22;52992;52.084;5.412;2024-02-26T08:05:59;9.60;61.70
66190;DHT22;52992;52.084;5.412;2024-02-26T08:08:26;9.60;61.70
66190;DHT22;52992;52.084;5.412;2024-02-26T08:10:53;9.60;62.00
66190;DHT22;52992;52.084;5.412;2024-02-26T08:13:19;9.70;62.10
66190;DHT22;52992;52.084;5.412;2024-02-26T08:15:46;9.60;61.60
66190;DHT22;52992;52.084;5.412;2024-02-26T08:18:13;9.60;62.20
66190;DHT22;52992;52.084;5.412;2024-02-26T08:20:40;9.60;61.50
66190;DHT22;52992;52.084;5.412;2024-02-26T08:23:07;9.70;61.80
66190;DHT22;52992;52.084;5.412;2024-02-26T08:25:34;9.60;61.80
66190;DHT22;52992;52.084;5.412;2024-02-26T08:28:01;9.60;62.10
66190;DHT22;52992;52.084;5.412;2024-02-26T08:30:28;9.60;61.90
66190;DHT22;52992;52.084;5.412;2024-02-26T08:32:55;9.60;62.30
66190;DHT22;52992;52.084;5.412;2024-02-26T08:35:22;9.70;62.40
66190;DHT22;52992;52.084;5.412;2024-02-26T08:37:49;9.80;62.10
66190;DHT22;52992;52.084;5.412;2024-02-26T08:40:16;9.80;62.10
66190;DHT22;52992;52.084;5.412;2024-02-26T08:42:43;9.80;61.70
66190;DHT22;52992;52.084;5.412;2024-02-26T08:45:09;9.80;62.20
66190;DHT22;52992;52.084;5.412;2024-02-26T08:47:37;9.80;61.60
66190;DHT22;52992;52.084;5.412;2024-02-26T08:50:05;9.70;61.40
66190;DHT22;52992;52.084;5.412;2024-02-26T08:52:32;9.70;61.40
66190;DHT22;52992;52.084;5.412;2024-02-26T08:55:00;9.70;61.60
66190;DHT22;52992;52.084;5.412;2024-02-26T08:57:26;9.60;61.60
66190;DHT22;52992;52.084;5.412;2024-02-26T08:59:54;9.60;61.70
66190;DHT22;52992;52.084;5.412;2024-02-26T09:02:21;9.60;62.60
66190;DHT22;52992;52.084;5.412;2024-02-26T09:04:48;9.70;61.50
66190;DHT22;52992;52.084;5.412;2024-02-26T09:07:15;9.60;61.80
66190;DHT22;52992;52.084;5.412;2024-02-26T09:09:42;9.60;62.20
66190;DHT22;52992;52.084;5.412;2024-02-26T09:12:09;9.60;62.20
66190;DHT22;52992;52.084;5.412;2024-02-26T09:14:36;9.60;61.80
66190;DHT22;52992;52.084;5.412;2024-02-26T09:17:03;9.60;61.70
66190;DHT22;52992;52.084;5.412;2024-02-26T09:19:30;9.60;62.60
66190;DHT22;52992;52.084;5.412;2024-02-26T09:21:57;9.60;62.00
66190;DHT22;52992;52.084;5.412;2024-02-26T09:24:25;9.60;61.40
66190;DHT22;52992;52.084;5.412;2024-02-26T09:26:53;9.40;61.50
66190;DHT22;52992;52.084;5.412;2024-02-26T09:29:20;9.50;62.20
66190;DHT22;52992;52.084;5.412;2024-02-26T09:31:46;9.50;62.00
66190;DHT22;52992;52.084;5.412;2024-02-26T09:34:14;9.50;62.00
66190;DHT22;52992;52.084;5.412;2024-02-26T09:36:41;9.60;62.00
66190;DHT22;52992;52.084;5.412;2024-02-26T09:39:08;9.60;61.70
66190;DHT22;52992;52.084;5.412;2024-02-26T09:41:39;9.60;61.60
66190;DHT22;52992;52.084;5.412;2024-02-26T09:44:06;9.60;62.00
66190;DHT22;52992;52.084;5.412;2024-02-26T09:46:34;9.60;62.20
66190;DHT22;52992;52.084;5.412;2024-02-26T09:49:01;9.70;62.30
66190;DHT22;52992;52.084;5.412;2024-02-26T09:51:28;9.70;61.70
66190;DHT22;52992;52.084;5.412;2024-02-26T09:53:59;9.80;61.60
66190;DHT22;52992;52.084;5.412;2024-02-26T09:56:30;9.70;61.70
66190;DHT22;52992;52.084;5.412;2024-02-26T09:58:59;9.60;61.70
66190;DHT22;52992;52.084;5.412;2024-02-26T10:01:26;9.60;62.20
66190;DHT22;52992;52.084;5.412;2024-02-26T10:03:57;9.60;62.20
66190;DHT22;52992;52.084;5.412;2024-02-26T10:06:28;9.60;62.30
66190;DHT22;52992;52.084;5.412;2024-02-26T10:08:56;9.60;62.30
66190;DHT22;52992;52.084;5.412;2024-02-26T10:11:25;9.70;62.80
66190;DHT22;52992;52.084;5.412;2024-02-26T10:13:53;9.70;62.50
66190;DHT22;52992;52.084;5.412;2024-02-26T10:16:20;9.70;62.80
66190;DHT22;52992;52.084;5.412;2024-02-26T10:18:51;9.70;62.60
66190;DHT22;52992;52.084;5.412;2024-02-26T10:21:22;9.70;63.00
66190;DHT22;52992;52.084;5.412;2024-02-26T10:23:49;9.60;62.70
66190;DHT22;52992;52.084;5.412;2024-02-26T10:26:20;9.60;63.10
66190;DHT22;52992;52.084;5.412;2024-02-26T10:28:47;9.60;63.20
66190;DHT22;52992;52.084;5.412;2024-02-26T10:31:19;9.60;63.60
66190;DHT22;52992;52.084;5.412;2024-02-26T10:33:46;9.60;63.70
66190;DHT22;52992;52.084;5.412;2024-02-26T10:36:13;9.70;63.50
66190;DHT22;52992;52.084;5.412;2024-02-26T10:38:40;9.70;63.40
66190;DHT22;52992;52.084;5.412;2024-02-26T10:41:13;9.70;63.70
66190;DHT22;52992;52.084;5.412;2024-02-26T10:43:42;9.70;63.70
66190;DHT22;52992;52.084;5.412;2024-02-26T10:46:10;9.80;63.40
66190;DHT22;52992;52.084;5.412;2024-02-26T10:48:37;9.80;63.50
66190;DHT22;52992;52.084;5.412;2024-02-26T10:51:04;9.80;63.60
66190;DHT22;52992;52.084;5.412;2024-02-26T10:53:31;10.00;63.50
66190;DHT22;52992;52.084;5.412;2024-02-26T10:56:04;10.00;62.80
66190;DHT22;52992;52.084;5.412;2024-02-26T10:58:34;10.00;63.00
66190;DHT22;52992;52.084;5.412;2024-02-26T11:01:03;10.00;62.50
66190;DHT22;52992;52.084;5.412;2024-02-26T11:03:31;10.10;63.70
66190;DHT22;52992;52.084;5.412;2024-02-26T11:06:01;10.20;62.70
66190;DHT22;52992;52.084;5.412;2024-02-26T11:08:30;10.10;62.40
66190;DHT22;52992;52.084;5.412;2024-02-26T11:10:59;10.10;62.80
66190;DHT22;52992;52.084;5.412;2024-02-26T11:13:28;10.10;63.00
66190;DHT22;52992;52.084;5.412;2024-02-26T11:16:01;10.10;62.90
66190;DHT22;52992;52.084;5.412;2024-02-26T11:18:28;10.20;62.70
66190;DHT22;52992;52.084;5.412;2024-02-26T11:20:56;10.20;62.80
66190;DHT22;52992;52.084;5.412;2024-02-26T11:23:24;10.20;62.90
66190;DHT22;52992;52.084;5.412;2024-02-26T11:25:53;10.10;62.90
66190;DHT22;52992;52.084;5.412;2024-02-26T11:28:23;10.10;62.70
66190;DHT22;52992;52.084;5.412;2024-02-26T11:30:51;10.10;63.20
66190;DHT22;52992;52.084;5.412;2024-02-26T11:33:19;10.10;63.40
66190;DHT22;52992;52.084;5.412;2024-02-26T11:35:47;10.00;62.70
66190;DHT22;52992;52.084;5.412;2024-02-26T11:38:20;10.00;63.20
66190;DHT22;52992;52.084;5.412;2024-02-26T11:40:48;10.00;63.50
66190;DHT22;52992;52.084;5.412;2024-02-26T11:43:16;10.00;63.20
66190;DHT22;52992;52.084;5.412;2024-02-26T11:48:24;10.00;63.00
66190;DHT22;52992;52.084;5.412;2024-02-26T11:50:54;10.00;63.60
66190;DHT22;52992;52.084;5.412;2024-02-26T11:53:31;10.10;63.60
66190;DHT22;52992;52.084;5.412;2024-02-26T11:58:44;10.10;63.30
66190;DHT22;52992;52.084;5.412;2024-02-26T12:04:09;10.20;63.20
66190;DHT22;52992;52.084;5.412;2024-02-26T12:06:46;10.20;63.20
66190;DHT22;52992;52.084;5.412;2024-02-26T12:09:17;10.20;62.80
66190;DHT22;52992;52.084;5.412;2024-02-26T12:11:57;10.20;63.50
66190;DHT22;52992;52.084;5.412;2024-02-26T12:14:27;10.20;63.30
66190;DHT22;52992;52.084;5.412;2024-02-26T12:16:55;10.20;63.70
66190;DHT22;52992;52.084;5.412;2024-02-26T12:19:23;10.30;63.30
66190;DHT22;52992;52.084;5.412;2024-02-26T12:21:53;10.20;63.10
66190;DHT22;52992;52.084;5.412;2024-02-26T12:24:22;10.20;63.40
66190;DHT22;52992;52.084;5.412;2024-02-26T12:26:49;10.20;63.50
66190;DHT22;52992;52.084;5.412;2024-02-26T12:29:16;10.10;62.90
66190;DHT22;52992;52.084;5.412;2024-02-26T12:31:43;10.20;63.70
66190;DHT22;52992;52.084;5.412;2024-02-26T12:34:10;10.20;63.60
66190;DHT22;52992;52.084;5.412;2024-02-26T12:36:38;10.20;63.30
66190;DHT22;52992;52.084;5.412;2024-02-26T12:39:07;10.20;63.30
66190;DHT22;52992;52.084;5.412;2024-02-26T12:41:35;10.20;62.80
66190;DHT22;52992;52.084;5.412;2024-02-26T12:44:02;10.10;63.30
66190;DHT22;52992;52.084;5.412;2024-02-26T12:46:29;10.10;63.50
66190;DHT22;52992;52.084;5.412;2024-02-26T12:48:58;10.20;63.40
66190;DHT22;52992;52.084;5.412;2024-02-26T12:51:26;10.20;63.70
66190;DHT22;52992;52.084;5.412;2024-02-26T12:53:55;10.20;63.00
66190;DHT22;52992;52.084;5.412;2024-02-26T12:56:22;10.20;63.80
66190;DHT22;52992;52.084;5.412;2024-02-26T12:58:51;10.30;63.20
66190;DHT22;52992;52.084;5.412;2024-02-26T13:01:21;10.30;63.10
66190;DHT22;52992;52.084;5.412;2024-02-26T13:03:51;10.30;63.20
66190;DHT22;52992;52.084;5.412;2024-02-26T13:06:19;10.40;63.20
66190;DHT22;52992;52.084;5.412;2024-02-26T13:08:49;10.50;63.10
66190;DHT22;52992;52.084;5.412;2024-02-26T13:11:16;10.50;62.60
66190;DHT22;52992;52.084;5.412;2024-02-26T13:13:47;10.40;62.40
66190;DHT22;52992;52.084;5.412;2024-02-26T13:16:15;10.40;62.90
66190;DHT22;52992;52.084;5.412;2024-02-26T13:18:42;10.40;62.60
66190;DHT22;52992;52.084;5.412;2024-02-26T13:21:14;10.40;62.00
66190;DHT22;52992;52.084;5.412;2024-02-26T13:23:48;10.40;62.20
66190;DHT22;52992;52.084;5.412;2024-02-26T13:26:15;10.50;62.60
66190;DHT22;52992;52.084;5.412;2024-02-26T13:28:42;10.50;62.40
66190;DHT22;52992;52.084;5.412;2024-02-26T13:31:09;10.50;60.90
66190;DHT22;52992;52.084;5.412;2024-02-26T13:33:36;10.30;61.80
66190;DHT22;52992;52.084;5.412;2024-02-26T13:36:04;10.40;62.10
66190;DHT22;52992;52.084;5.412;2024-02-26T13:38:31;10.40;62.20
66190;DHT22;52992;52.084;5.412;2024-02-26T13:40:58;10.40;61.70
66190;DHT22;52992;52.084;5.412;2024-02-26T13:43:24;10.40;61.10
66190;DHT22;52992;52.084;5.412;2024-02-26T13:45:51;10.40;61.20
66190;DHT22;52992;52.084;5.412;2024-02-26T13:48:19;10.40;61.60
66190;DHT22;52992;52.084;5.412;2024-02-26T13:50:46;10.40;61.50
66190;DHT22;52992;52.084;5.412;2024-02-26T13:53:13;10.40;61.40
66190;DHT22;52992;52.084;5.412;2024-02-26T13:55:41;10.40;62.00
66190;DHT22;52992;52.084;5.412;2024-02-26T13:58:12;10.40;62.00
66190;DHT22;52992;52.084;5.412;2024-02-26T14:00:40;10.50;61.70
66190;DHT22;52992;52.084;5.412;2024-02-26T14:03:09;10.50;60.80
66190;DHT22;52992;52.084;5.412;2024-02-26T14:05:36;10.50;61.40
66190;DHT22;52992;52.084;5.412;2024-02-26T14:08:03;10.50;61.30
66190;DHT22;52992;52.084;5.412;2024-02-26T14:10:31;10.50;61.50
66190;DHT22;52992;52.084;5.412;2024-02-26T14:12:59;10.50;61.20
66190;DHT22;52992;52.084;5.412;2024-02-26T14:15:27;10.50;60.50
66190;DHT22;52992;52.084;5.412;2024-02-26T14:17:55;10.40;60.40
66190;DHT22;52992;52.084;5.412;2024-02-26T14:20:24;10.40;60.20
66190;DHT22;52992;52.084;5.412;2024-02-26T14:22:51;10.30;60.20
66190;DHT22;52992;52.084;5.412;2024-02-26T14:25:21;10.40;60.50
66190;DHT22;52992;52.084;5.412;2024-02-26T14:27:48;10.40;60.30
66190;DHT22;52992;52.084;5.412;2024-02-26T14:30:15;10.30;60.40
66190;DHT22;52992;52.084;5.412;2024-02-26T14:32:42;10.40;60.00
66190;DHT22;52992;52.084;5.412;2024-02-26T14:35:11;10.40;60.30
66190;DHT22;52992;52.084;5.412;2024-02-26T14:37:43;10.40;59.90
66190;DHT22;52992;52.084;5.412;2024-02-26T14:40:14;10.40;60.20
66190;DHT22;52992;52.084;5.412;2024-02-26T14:42:42;10.30;59.90
66190;DHT22;52992;52.084;5.412;2024-02-26T14:45:09;10.30;60.50
66190;DHT22;52992;52.084;5.412;2024-02-26T14:47:38;10.30;60.00
66190;DHT22;52992;52.084;5.412;2024-02-26T14:50:06;10.40;59.80
66190;DHT22;52992;52.084;5.412;2024-02-26T14:52:33;10.40;59.90
66190;DHT22;52992;52.084;5.412;2024-02-26T14:55:00;10.40;59.60
66190;DHT22;52992;52.084;5.412;2024-02-26T14:57:27;10.40;59.50
66190;DHT22;52992;52.084;5.412;2024-02-26T14:59:54;10.40;59.90
66190;DHT22;52992;52.084;5.412;2024-02-26T15:02:21;10.50;60.20
66190;DHT22;52992;52.084;5.412;2024-02-26T15:04:48;10.50;60.50
66190;DHT22;52992;52.084;5.412;2024-02-26T15:07:15;10.50;59.80
66190;DHT22;52992;52.084;5.412;2024-02-26T15:09:43;10.50;60.10
66190;DHT22;52992;52.084;5.412;2024-02-26T15:12:10;10.50;60.20
66190;DHT22;52992;52.084;5.412;2024-02-26T15:14:37;10.60;60.20
66190;DHT22;52992;52.084;5.412;2024-02-26T15:17:05;10.50;59.90
66190;DHT22;52992;52.084;5.412;2024-02-26T15:19:37;10.50;59.60
66190;DHT22;52992;52.084;5.412;2024-02-26T15:22:04;10.50;58.60
66190;DHT22;52992;52.084;5.412;2024-02-26T15:24:31;10.40;59.70
66190;DHT22;52992;52.084;5.412;2024-02-26T15:26:58;10.50;59.90
66190;DHT22;52992;52.084;5.412;2024-02-26T15:29:25;10.50;59.40
66190;DHT22;52992;52.084;5.412;2024-02-26T15:31:53;10.50;59.00
66190;DHT22;52992;52.084;5.412;2024-02-26T15:34:20;10.50;59.50
66190;DHT22;52992;52.084;5.412;2024-02-26T15:36:47;10.50;59.70
66190;DHT22;52992;52.084;5.412;2024-02-26T15:39:14;10.60;58.90
66190;DHT22;52992;52.084;5.412;2024-02-26T15:41:40;10.60;59.40
66190;DHT22;52992;52.084;5.412;2024-02-26T15:44:07;10.60;58.80
66190;DHT22;52992;52.084;5.412;2024-02-26T15:46:42;10.60;58.90
66190;DHT22;52992;52.084;5.412;2024-02-26T15:49:09;10.60;58.80
66190;DHT22;52992;52.084;5.412;2024-02-26T15:51:41;10.60;57.80
66190;DHT22;52992;52.084;5.412;2024-02-26T15:54:09;10.60;58.70